createdAt,value
2022-08-25T00:01:58.468Z,101833.03
2022-08-25T00:04:26.252Z,101835.88
2022-08-25T00:06:59.345Z,101830.56
2022-08-25T00:09:28.397Z,101830.91
2022-08-25T00:11:56.714Z,101832.09
2022-08-25T00:14:26.284Z,101821.41
2022-08-25T00:16:56.232Z,101823.78
2022-08-25T00:19:25.274Z,101828.97
2022-08-25T00:21:53.049Z,101822.81
2022-08-25T00:24:21.316Z,101827.69
2022-08-25T00:26:50.753Z,101818.69
2022-08-25T00:29:18.465Z,101824.72
2022-08-25T00:31:46.316Z,101817.72
2022-08-25T00:34:16.641Z,101814.41
2022-08-25T00:36:44.384Z,101811.91
2022-08-25T00:39:12.408Z,101814.25
2022-08-25T00:41:41.862Z,101812.59
2022-08-25T00:44:11.078Z,101808.09
2022-08-25T00:46:40.922Z,101811.28
2022-08-25T00:49:14.679Z,101806.78
2022-08-25T00:51:52.588Z,101801.47
2022-08-25T00:54:23.035Z,101802.66
2022-08-25T00:56:51.979Z,101807.88
2022-08-25T00:59:20.619Z,101797.69
2022-08-25T01:01:48.654Z,101806.56
2022-08-25T01:04:16.436Z,101806.06
2022-08-25T01:06:44.686Z,101804.41
2022-08-25T01:09:14.840Z,101803.09
2022-08-25T01:11:42.934Z,101802.28
2022-08-25T01:14:11.803Z,101792.44
2022-08-25T01:16:40.189Z,101787.94
2022-08-25T01:19:08.916Z,101785.94
2022-08-25T01:21:45.990Z,101782.59
2022-08-25T01:24:17.055Z,101780.13
2022-08-25T01:26:44.627Z,101784.97
2022-08-25T01:29:25.662Z,101788.16
2022-08-25T01:31:57.379Z,101786.53
2022-08-25T01:34:25.857Z,101788.88
2022-08-25T01:36:55.840Z,101783.56
2022-08-25T01:39:23.416Z,101788.41
2022-08-25T01:41:55.785Z,101776.56
2022-08-25T01:44:23.398Z,101778.91
2022-08-25T01:46:52.265Z,101777.25
2022-08-25T01:49:19.872Z,101776.78
2022-08-25T01:51:48.938Z,101766.59
2022-08-25T01:54:17.971Z,101767.28
2022-08-25T01:56:45.545Z,101765.63
2022-08-25T01:59:15.543Z,101769.19
2022-08-25T02:01:51.830Z,101766.38
2022-08-25T02:04:29.418Z,101762.22
2022-08-25T02:06:57.029Z,101746.34
2022-08-25T02:09:25.976Z,101754.88
2022-08-25T02:11:53.586Z,101756.41
2022-08-25T02:14:21.208Z,101755.56
2022-08-25T02:16:50.791Z,101749.75
2022-08-25T02:19:19.370Z,101746.91
2022-08-25T02:21:46.961Z,101745.59
2022-08-25T02:24:14.877Z,101747.13
2022-08-25T02:26:43.829Z,101749.47
2022-08-25T02:29:12.439Z,101747.34
2022-08-25T02:31:40.298Z,101739.53
2022-08-25T02:34:08.721Z,101741.88
2022-08-25T02:36:37.315Z,101738.56
2022-08-25T02:39:05.777Z,101734.41
2022-08-25T02:41:33.594Z,101732.75
2022-08-25T02:44:03.444Z,101735.94
2022-08-25T02:46:31.283Z,101738.28
2022-08-25T02:48:58.943Z,101730.13
2022-08-25T02:51:28.384Z,101739.81
2022-08-25T02:53:57.523Z,101729.63
2022-08-25T02:56:25.778Z,101729.19
2022-08-25T02:58:53.312Z,101726.69
2022-08-25T03:01:22.551Z,101727.88
2022-08-25T03:03:57.037Z,101735.06
2022-08-25T03:06:25.032Z,101732.56
2022-08-25T03:08:53.130Z,101721.56
2022-08-25T03:11:21.052Z,101725.56
2022-08-25T03:13:50.956Z,101714.22
2022-08-25T03:16:18.687Z,101716.22
2022-08-25T03:18:48.240Z,101712.56
2022-08-25T03:21:16.302Z,101707.72
2022-08-25T03:23:45.095Z,101718.25
2022-08-25T03:26:30.607Z,101702.41
2022-08-25T03:28:58.165Z,101701.56
2022-08-25T03:31:27.673Z,101693.41
2022-08-25T03:33:56.916Z,101701.09
2022-08-25T03:36:25.024Z,101698.25
2022-08-25T03:38:52.803Z,101698.94
2022-08-25T03:41:21.483Z,101696.09
2022-08-25T03:43:49.722Z,101694.44
2022-08-25T03:46:19.277Z,101691.16
2022-08-25T03:48:47.061Z,101691.16
2022-08-25T03:51:19.719Z,101680.50
2022-08-25T03:53:47.335Z,101671.50
2022-08-25T03:56:14.882Z,101671.50
2022-08-25T03:58:42.416Z,101665.34
2022-08-25T04:01:10.085Z,101663.69
2022-08-25T04:03:37.715Z,101661.19
2022-08-25T04:06:06.750Z,101671.72
2022-08-25T04:08:35.736Z,101663.88
2022-08-25T04:11:06.792Z,101660.22
2022-08-25T04:13:34.409Z,101661.41
2022-08-25T04:16:01.944Z,101652.41
2022-08-25T04:18:31.032Z,101654.41
2022-08-25T04:21:05.159Z,101648.25
2022-08-25T04:23:32.743Z,101651.47
2022-08-25T04:26:01.727Z,101654.66
2022-08-25T04:28:29.609Z,101645.66
2022-08-25T04:30:57.183Z,101638.66
2022-08-25T04:33:24.758Z,101628.84
2022-08-25T04:35:52.269Z,101630.84
2022-08-25T04:38:19.880Z,101637.22
2022-08-25T04:40:47.431Z,101628.22
2022-08-25T04:43:16.373Z,101638.25
2022-08-25T04:45:43.985Z,101639.81
2022-08-25T04:48:11.588Z,101644.13
2022-08-25T04:50:39.800Z,101635.13
2022-08-25T04:53:07.380Z,101635.47
2022-08-25T04:55:40.646Z,101630.16
2022-08-25T04:58:08.294Z,101629.66
2022-08-25T05:00:46.643Z,101628.34
2022-08-25T05:03:14.313Z,101640.50
2022-08-25T05:05:41.842Z,101630.34
2022-08-25T05:08:10.082Z,101625.84
2022-08-25T05:10:40.148Z,101629.88
2022-08-25T05:13:09.587Z,101633.03
2022-08-25T05:15:52.173Z,101634.72
2022-08-25T05:18:21.631Z,101639.53
2022-08-25T05:20:49.238Z,101638.38
2022-08-25T05:23:17.039Z,101651.38
2022-08-25T05:25:44.655Z,101641.69
2022-08-25T05:28:12.508Z,101635.34
2022-08-25T05:30:40.810Z,101643.16
2022-08-25T05:33:08.851Z,101633.97
2022-08-25T05:35:37.758Z,101626.81
2022-08-25T05:38:05.969Z,101623.72
2022-08-25T05:40:34.249Z,101626.69
2022-08-25T05:43:03.658Z,101639.00
2022-08-25T05:45:31.829Z,101637.16
2022-08-25T05:47:59.462Z,101630.41
2022-08-25T05:50:27.553Z,101624.53
2022-08-25T05:52:56.535Z,101627.16
2022-08-25T05:55:24.170Z,101627.06
2022-08-25T05:57:51.992Z,101623.31
2022-08-25T06:00:19.741Z,101622.75
2022-08-25T06:02:48.417Z,101624.63
2022-08-25T06:05:17.419Z,101622.88
2022-08-25T06:07:45.003Z,101617.47
2022-08-25T06:10:14.869Z,101619.38
2022-08-25T06:12:44.750Z,101622.47
2022-08-25T06:15:12.680Z,101630.06
2022-08-25T06:17:41.550Z,101625.78
2022-08-25T06:20:10.463Z,101630.88
2022-08-25T06:22:39.017Z,101631.94
2022-08-25T06:25:07.052Z,101629.69
2022-08-25T06:27:36.109Z,101626.75
2022-08-25T06:30:07.887Z,101632.28
2022-08-25T06:32:36.920Z,101624.00
2022-08-25T06:35:04.902Z,101627.91
2022-08-25T06:37:32.532Z,101625.66
2022-08-25T06:40:00.139Z,101627.41
2022-08-25T06:42:28.020Z,101621.50
2022-08-25T06:44:57.004Z,101626.94
2022-08-25T06:47:24.572Z,101622.16
2022-08-25T06:49:52.147Z,101615.03
2022-08-25T06:52:19.721Z,101615.75
2022-08-25T06:54:47.510Z,101621.13
2022-08-25T06:57:16.833Z,101617.06
2022-08-25T06:59:44.408Z,101620.44
2022-08-25T07:02:13.361Z,101618.03
2022-08-25T07:04:49.594Z,101616.91
2022-08-25T07:07:17.317Z,101615.31
2022-08-25T07:09:44.851Z,101610.41
2022-08-25T07:12:12.380Z,101604.50
2022-08-25T07:14:40.028Z,101607.59
2022-08-25T07:17:23.590Z,101618.94
2022-08-25T07:19:53.061Z,101609.81
2022-08-25T07:22:25.243Z,101607.06
2022-08-25T07:24:52.838Z,101612.75
2022-08-25T07:27:20.462Z,101622.22
2022-08-25T07:29:50.099Z,101612.19
2022-08-25T07:32:17.669Z,101621.50
2022-08-25T07:35:04.048Z,101612.25
2022-08-25T07:37:48.135Z,101609.50
2022-08-25T07:40:18.281Z,101614.50
2022-08-25T07:42:46.243Z,101607.22
2022-08-25T07:45:15.544Z,101619.13
2022-08-25T07:47:48.221Z,101612.59
2022-08-25T07:50:21.116Z,101605.28
2022-08-25T07:52:53.918Z,101617.19
2022-08-25T07:55:23.627Z,101613.94
2022-08-25T07:57:53.999Z,101611.09
2022-08-25T08:00:24.414Z,101613.56
2022-08-25T08:02:52.367Z,101614.38
2022-08-25T08:05:24.037Z,101609.03
2022-08-25T08:07:51.767Z,101606.16
2022-08-25T08:13:07.847Z,101603.72
2022-08-25T08:15:35.605Z,101601.25
2022-08-25T08:18:04.673Z,101601.28
2022-08-25T08:20:43.079Z,101585.66
2022-08-25T08:23:11.027Z,101594.25
2022-08-25T08:25:38.596Z,101588.47
2022-08-25T08:28:07.233Z,101582.25
2022-08-25T08:30:36.477Z,101582.22
2022-08-25T08:33:12.882Z,101581.34
2022-08-25T08:35:42.477Z,101583.38
2022-08-25T08:38:16.138Z,101579.25
2022-08-25T08:41:11.516Z,101578.78
2022-08-25T08:43:39.812Z,101580.81
2022-08-25T08:46:08.413Z,101578.66
2022-08-25T08:48:41.501Z,101574.16
2022-08-25T08:51:17.483Z,101580.66
2022-08-25T08:53:47.125Z,101583.38
2022-08-25T08:56:16.536Z,101580.34
2022-08-25T08:58:45.273Z,101590.34
2022-08-25T09:01:20.077Z,101589.25
2022-08-25T09:03:54.953Z,101584.72
2022-08-25T09:06:29.247Z,101580.59
2022-08-25T09:08:58.692Z,101572.22
2022-08-25T09:11:32.027Z,101578.28
2022-08-25T09:14:06.437Z,101581.53
2022-08-25T09:16:57.529Z,101575.75
2022-08-25T09:19:32.755Z,101582.81
2022-08-25T09:22:33.982Z,101579.88
2022-08-25T09:25:05.365Z,101581.00
2022-08-25T09:27:40.969Z,101586.69
2022-08-25T09:30:12.220Z,101579.44
2022-08-25T09:32:41.629Z,101576.00
2022-08-25T09:35:19.411Z,101571.31
2022-08-25T09:37:58.426Z,101566.50
2022-08-25T09:40:27.036Z,101558.28
2022-08-25T09:42:58.052Z,101558.34
2022-08-25T09:45:38.146Z,101562.88
2022-08-25T09:48:21.830Z,101569.66
2022-08-25T09:50:50.942Z,101559.50
2022-08-25T09:53:21.868Z,101560.59
2022-08-25T09:56:00.024Z,101558.16
2022-08-25T09:58:28.363Z,101559.97
2022-08-25T10:01:04.509Z,101557.94
2022-08-25T10:03:36.464Z,101553.41
2022-08-25T10:06:06.420Z,101558.25
2022-08-25T10:08:39.397Z,101555.88
2022-08-25T10:11:09.246Z,101553.09
2022-08-25T10:13:39.722Z,101552.34
2022-08-25T10:16:24.156Z,101545.06
2022-08-25T10:19:06.734Z,101543.97
2022-08-25T10:21:35.530Z,101545.50
2022-08-25T10:24:05.946Z,101539.44
2022-08-25T10:26:36.978Z,101539.22
2022-08-25T10:29:11.841Z,101533.34
2022-08-25T10:31:44.996Z,101523.84
2022-08-25T10:34:21.553Z,101524.53
2022-08-25T10:36:56.041Z,101534.09
2022-08-25T10:39:36.419Z,101522.63
2022-08-25T10:42:07.181Z,101522.63
2022-08-25T10:44:56.647Z,101512.94
2022-08-25T10:47:36.120Z,101510.56
2022-08-25T10:50:05.790Z,101506.84
2022-08-25T10:52:38.983Z,101507.66
2022-08-25T10:55:13.893Z,101502.91
2022-08-25T10:57:48.184Z,101497.25
2022-08-25T11:00:17.063Z,101487.81
2022-08-25T11:02:52.692Z,101477.72
2022-08-25T11:05:25.035Z,101477.84
2022-08-25T11:07:55.557Z,101472.44
2022-08-25T11:10:27.812Z,101473.63
2022-08-25T11:12:57.351Z,101471.16
2022-08-25T11:15:28.800Z,101469.56
2022-08-25T11:18:00.257Z,101473.66
2022-08-25T11:20:37.134Z,101466.22
2022-08-25T11:23:09.838Z,101452.94
2022-08-25T11:25:43.282Z,101462.00
2022-08-25T11:28:14.606Z,101457.53
2022-08-25T11:30:43.041Z,101453.59
2022-08-25T11:33:13.312Z,101455.53
2022-08-25T11:35:43.513Z,101451.91
2022-08-25T11:38:22.223Z,101451.75
2022-08-25T11:40:55.569Z,101453.28
2022-08-25T11:43:31.449Z,101459.31
2022-08-25T11:46:14.986Z,101455.38
2022-08-25T11:48:47.179Z,101453.50
2022-08-25T11:51:30.972Z,101446.34
2022-08-25T11:54:15.249Z,101460.53
2022-08-25T11:56:51.140Z,101450.13
2022-08-25T11:59:33.568Z,101461.56
2022-08-25T12:02:01.679Z,101450.44
2022-08-25T12:04:44.290Z,101455.09
2022-08-25T12:07:30.752Z,101447.88
2022-08-25T12:10:13.046Z,101448.63
2022-08-25T12:12:57.286Z,101448.22
2022-08-25T12:15:26.939Z,101449.31
2022-08-25T12:18:09.418Z,101449.38
2022-08-25T12:21:03.941Z,101450.72
2022-08-25T12:23:32.889Z,101453.84
2022-08-25T12:26:04.082Z,101449.44
2022-08-25T12:28:44.598Z,101452.28
2022-08-25T12:31:19.822Z,101451.78
2022-08-25T12:33:55.181Z,101435.91
2022-08-25T12:36:28.552Z,101445.56
2022-08-25T12:39:08.934Z,101443.63
2022-08-25T12:41:37.058Z,101455.69
2022-08-25T12:44:18.945Z,101461.06
2022-08-25T12:46:47.512Z,101454.56
2022-08-25T12:49:32.193Z,101453.94
2022-08-25T12:52:01.807Z,101459.84
2022-08-25T12:54:38.963Z,101449.81
2022-08-25T12:57:16.693Z,101466.78
2022-08-25T12:59:55.102Z,101455.75
2022-08-25T13:02:39.834Z,101445.31
2022-08-25T13:05:34.824Z,101445.69
2022-08-25T13:08:20.970Z,101448.28
2022-08-25T13:10:51.511Z,101448.38
2022-08-25T13:13:24.775Z,101451.75
2022-08-25T13:16:00.666Z,101452.34
2022-08-25T13:18:30.073Z,101452.69
2022-08-25T13:21:03.822Z,101453.97
2022-08-25T13:23:32.353Z,101447.63
2022-08-25T13:25:59.945Z,101455.13
2022-08-25T13:28:31.272Z,101459.59
2022-08-25T13:31:05.822Z,101458.31
2022-08-25T13:33:35.557Z,101450.69
2022-08-25T13:36:21.460Z,101458.16
2022-08-25T13:38:50.312Z,101460.75
2022-08-25T13:41:19.316Z,101451.41
2022-08-25T13:43:46.969Z,101447.41
2022-08-25T13:46:19.049Z,101452.66
2022-08-25T13:48:49.508Z,101451.41
2022-08-25T13:51:21.543Z,101442.44
2022-08-25T13:53:51.193Z,101439.53
2022-08-25T13:56:27.312Z,101444.72
2022-08-25T13:58:59.665Z,101442.22
2022-08-25T14:01:48.874Z,101436.41
2022-08-25T14:04:23.495Z,101428.91
2022-08-25T14:07:05.954Z,101440.88
2022-08-25T14:09:39.959Z,101433.00
2022-08-25T14:12:08.812Z,101424.69
2022-08-25T14:14:37.058Z,101426.03
2022-08-25T14:17:22.479Z,101426.59
2022-08-25T14:19:56.467Z,101426.47
2022-08-25T14:22:24.221Z,101428.59
2022-08-25T14:24:53.170Z,101433.13
2022-08-25T14:27:20.751Z,101425.19
2022-08-25T14:29:52.287Z,101421.94
2022-08-25T14:32:21.757Z,101421.13
2022-08-25T14:34:49.370Z,101419.09
2022-08-25T14:37:18.116Z,101415.09
2022-08-25T14:39:45.912Z,101421.88
2022-08-25T14:42:14.410Z,101423.63
2022-08-25T14:44:41.974Z,101422.81
2022-08-25T14:47:09.922Z,101424.16
2022-08-25T14:49:41.510Z,101427.28
2022-08-25T14:52:10.387Z,101413.97
2022-08-25T14:54:40.457Z,101419.53
2022-08-25T14:57:08.377Z,101411.84
2022-08-25T14:59:36.107Z,101417.03
2022-08-25T15:02:13.047Z,101419.72
2022-08-25T15:04:42.457Z,101419.44
2022-08-25T15:07:30.647Z,101424.88
2022-08-25T15:09:59.606Z,101425.81
2022-08-25T15:12:46.456Z,101442.94
2022-08-25T15:15:14.632Z,101422.63
2022-08-25T15:17:44.571Z,101415.84
2022-08-25T15:20:13.848Z,101420.88
2022-08-25T15:22:43.728Z,101427.03
2022-08-25T15:25:11.508Z,101423.72
2022-08-25T15:27:39.073Z,101423.84
2022-08-25T15:30:07.049Z,101427.31
2022-08-25T15:32:34.835Z,101417.50
2022-08-25T15:35:02.917Z,101420.94
2022-08-25T15:37:33.561Z,101434.19
2022-08-25T15:40:01.144Z,101421.13
2022-08-25T15:42:28.965Z,101423.28
2022-08-25T15:44:56.535Z,101421.69
2022-08-25T15:47:25.050Z,101426.69
2022-08-25T15:50:00.811Z,101421.38
2022-08-25T15:52:35.061Z,101430.53
2022-08-25T15:55:15.464Z,101428.16
2022-08-25T15:57:43.365Z,101439.75
2022-08-25T16:00:12.258Z,101430.72
2022-08-25T16:02:41.294Z,101431.19
2022-08-25T16:05:10.207Z,101435.72
2022-08-25T16:07:38.117Z,101445.63
2022-08-25T16:10:06.129Z,101441.91
2022-08-25T16:12:35.450Z,101439.03
2022-08-25T16:15:03.321Z,101435.31
2022-08-25T16:17:30.843Z,101424.59
2022-08-25T16:19:58.551Z,101430.69
2022-08-25T16:22:26.685Z,101438.00
2022-08-25T16:24:55.963Z,101422.75
2022-08-25T16:27:24.196Z,101417.75
2022-08-25T16:29:53.138Z,101409.88
2022-08-25T16:32:20.909Z,101415.13
2022-08-25T16:34:48.454Z,101419.16
2022-08-25T16:37:15.996Z,101415.03
2022-08-25T16:39:45.697Z,101410.47
2022-08-25T16:42:13.999Z,101400.59
2022-08-25T16:44:41.710Z,101400.97
2022-08-25T16:47:10.578Z,101392.72
2022-08-25T16:49:41.728Z,101400.03
2022-08-25T16:52:24.886Z,101390.16
2022-08-25T16:55:15.247Z,101395.34
2022-08-25T16:57:45.323Z,101385.88
2022-08-25T17:00:16.374Z,101388.63
2022-08-25T17:02:45.382Z,101389.69
2022-08-25T17:05:13.248Z,101391.22
2022-08-25T17:07:41.096Z,101386.19
2022-08-25T17:10:12.578Z,101395.94
2022-08-25T17:12:40.655Z,101386.44
2022-08-25T17:15:08.549Z,101388.81
2022-08-25T17:17:37.153Z,101398.59
2022-08-25T17:20:06.537Z,101390.31
2022-08-25T17:22:34.114Z,101403.63
2022-08-25T17:25:02.695Z,101403.47
2022-08-25T17:27:34.403Z,101401.72
2022-08-25T17:30:02.003Z,101413.44
2022-08-25T17:32:30.385Z,101414.97
2022-08-25T17:34:59.288Z,101408.34
2022-08-25T17:37:28.250Z,101408.22
2022-08-25T17:40:02.593Z,101413.00
2022-08-25T17:42:31.611Z,101421.09
2022-08-25T17:44:59.343Z,101417.25
2022-08-25T17:47:27.829Z,101428.16
2022-08-25T17:49:55.375Z,101427.25
2022-08-25T17:52:25.077Z,101422.63
2022-08-25T17:54:54.641Z,101432.25
2022-08-25T17:57:26.432Z,101432.91
2022-08-25T17:59:54.787Z,101430.66
2022-08-25T18:02:22.325Z,101437.00
2022-08-25T18:04:49.843Z,101446.59
2022-08-25T18:07:17.389Z,101451.34
2022-08-25T18:09:45.066Z,101456.44
2022-08-25T18:12:14.037Z,101459.91
2022-08-25T18:14:43.747Z,101461.69
2022-08-25T18:17:14.000Z,101461.03
2022-08-25T18:19:49.509Z,101451.00
2022-08-25T18:22:17.112Z,101453.19
2022-08-25T18:24:44.789Z,101456.63
2022-08-25T18:27:13.538Z,101454.44
2022-08-25T18:29:43.071Z,101461.59
2022-08-25T18:32:12.440Z,101464.72
2022-08-25T18:34:40.265Z,101467.78
2022-08-25T18:37:21.879Z,101456.94
2022-08-25T18:40:08.705Z,101465.59
2022-08-25T18:42:36.705Z,101454.41
2022-08-25T18:45:06.561Z,101465.94
2022-08-25T18:47:34.125Z,101461.25
2022-08-25T18:50:04.500Z,101464.66
2022-08-25T18:52:32.842Z,101464.94
2022-08-25T18:55:00.415Z,101476.19
2022-08-25T18:57:28.923Z,101477.75
2022-08-25T18:59:56.500Z,101479.69
2022-08-25T19:02:25.450Z,101501.53
2022-08-25T19:04:53.125Z,101491.59
2022-08-25T19:07:20.709Z,101490.66
2022-08-25T19:09:48.260Z,101497.44
2022-08-25T19:12:22.679Z,101501.38
2022-08-25T19:14:50.548Z,101495.59
2022-08-25T19:17:18.113Z,101501.63
2022-08-25T19:19:47.020Z,101501.16
2022-08-25T19:22:37.917Z,101503.06
2022-08-25T19:25:05.312Z,101502.94
2022-08-25T19:27:33.416Z,101512.56
2022-08-25T19:30:01.140Z,101515.66
2022-08-25T19:32:29.515Z,101515.06
2022-08-25T19:34:58.533Z,101516.97
2022-08-25T19:37:27.665Z,101520.91
2022-08-25T19:39:57.356Z,101534.16
2022-08-25T19:42:34.987Z,101536.06
2022-08-25T19:45:05.841Z,101546.97
2022-08-25T19:47:33.421Z,101550.97
2022-08-25T19:50:02.319Z,101550.03
2022-08-25T19:52:30.362Z,101555.63
2022-08-25T19:54:58.476Z,101544.16
2022-08-25T19:57:28.390Z,101560.72
2022-08-25T20:00:11.564Z,101560.72
2022-08-25T20:02:40.467Z,101561.91
2022-08-25T20:05:10.224Z,101565.91
2022-08-25T20:07:37.867Z,101571.13
2022-08-25T20:10:06.541Z,101576.34
2022-08-25T20:12:37.536Z,101573.38
2022-08-25T20:15:06.657Z,101569.22
2022-08-25T20:17:34.519Z,101577.66
2022-08-25T20:20:04.652Z,101577.88
2022-08-25T20:22:34.232Z,101584.25
2022-08-25T20:25:02.243Z,101578.47
2022-08-25T20:27:33.039Z,101579.63
2022-08-25T20:30:02.863Z,101591.34
2022-08-25T20:32:31.378Z,101589.69
2022-08-25T20:34:58.956Z,101587.16
2022-08-25T20:37:26.713Z,101584.72
2022-08-25T20:39:55.899Z,101581.41
2022-08-25T20:42:23.467Z,101597.25
2022-08-25T20:44:51.007Z,101589.44
2022-08-25T20:47:20.605Z,101594.97
2022-08-25T20:49:50.205Z,101591.53
2022-08-25T20:52:18.727Z,101592.22
2022-08-25T20:54:47.141Z,101598.75
2022-08-25T20:57:19.402Z,101598.88
2022-08-25T20:59:54.097Z,101595.56
2022-08-25T21:02:21.886Z,101599.56
2022-08-25T21:04:50.418Z,101605.13
2022-08-25T21:07:18.517Z,101605.84
2022-08-25T21:09:46.128Z,101600.88
2022-08-25T21:12:13.638Z,101603.34
2022-08-25T21:14:42.769Z,101598.03
2022-08-25T21:17:12.048Z,101600.03
2022-08-25T21:19:41.883Z,101602.75
2022-08-25T21:22:09.511Z,101599.78
2022-08-25T21:24:38.406Z,101615.97
2022-08-25T21:27:06.356Z,101609.47
2022-08-25T21:29:33.920Z,101609.81
2022-08-25T21:32:03.285Z,101613.34
2022-08-25T21:34:31.538Z,101610.50
2022-08-25T21:37:00.189Z,101615.00
2022-08-25T21:39:29.651Z,101613.81
2022-08-25T21:41:59.892Z,101618.31
2022-08-25T21:44:27.827Z,101613.81
2022-08-25T21:46:55.427Z,101606.03
2022-08-25T21:49:24.998Z,101608.41
2022-08-25T21:52:00.422Z,101608.75
2022-08-25T21:54:29.146Z,101603.06
2022-08-25T21:56:59.326Z,101612.41
2022-08-25T21:59:27.846Z,101621.75
2022-08-25T22:01:56.239Z,101630.25
2022-08-25T22:04:25.488Z,101630.97
2022-08-25T22:06:53.051Z,101625.63
2022-08-25T22:09:21.864Z,101623.13
2022-08-25T22:11:51.712Z,101623.50
2022-08-25T22:14:23.374Z,101626.66
2022-08-25T22:16:51.998Z,101625.50
2022-08-25T22:19:19.678Z,101629.50
2022-08-25T22:21:48.523Z,101618.50
2022-08-25T22:24:16.041Z,101618.50
2022-08-25T22:26:47.454Z,101620.50
2022-08-25T22:29:24.861Z,101616.84
2022-08-25T22:31:53.350Z,101625.34
2022-08-25T22:34:31.635Z,101627.72
2022-08-25T22:37:01.400Z,101624.38
2022-08-25T22:39:29.359Z,101624.38
2022-08-25T22:41:57.152Z,101617.06
2022-08-25T22:44:25.456Z,101609.75
2022-08-25T22:46:53.323Z,101617.78
2022-08-25T22:49:21.729Z,101624.97
2022-08-25T22:51:49.954Z,101624.84
2022-08-25T22:54:19.836Z,101626.00
2022-08-25T22:56:47.365Z,101617.84
2022-08-25T22:59:15.449Z,101630.38
2022-08-25T23:01:44.904Z,101629.19
2022-08-25T23:04:13.639Z,101637.22
2022-08-25T23:06:41.626Z,101629.88
2022-08-25T23:09:10.693Z,101629.75
2022-08-25T23:11:40.286Z,101628.91
2022-08-25T23:14:10.871Z,101628.91
2022-08-25T23:16:38.817Z,101632.09
2022-08-25T23:19:06.491Z,101626.81
2022-08-25T23:21:52.626Z,101628.81
2022-08-25T23:24:29.195Z,101627.13
2022-08-25T23:26:59.475Z,101635.13
2022-08-25T23:29:28.824Z,101641.16
2022-08-25T23:31:56.947Z,101632.66
2022-08-25T23:34:25.246Z,101628.28
2022-08-25T23:36:52.888Z,101635.63
2022-08-25T23:39:21.908Z,101623.13
2022-08-25T23:41:49.812Z,101627.94
2022-08-25T23:44:18.943Z,101627.13
2022-08-25T23:46:47.595Z,101622.13
2022-08-25T23:49:18.360Z,101642.31
2022-08-25T23:51:47.017Z,101641.16
2022-08-25T23:54:14.644Z,101644.81
2022-08-25T23:56:51.322Z,101645.63
2022-08-25T23:59:24.236Z,101639.84
